Time;durP1;ratioP1;P1;durP2;ratioP2;P2;SDS_P1;SDS_P2;PMS_P1;PMS_P2;Temp;Humidity;BMP_temperature;BMP_pressure;BME280_temperature;BME280_humidity;BME280_pressure;Samples;Min_cycle;Max_cycle;Signal;HPM_P1;HPM_P2
2024/01/01 00:01:48;;;;;;;4.95;1.30;;;8.80;99.90;;;;;;5034674;28;20057;-75
2024/01/01 00:04:15;;;;;;;5.45;2.20;;;8.70;99.90;;;;;;5034601;28;20174;-75
2024/01/01 00:06:42;;;;;;;3.97;2.10;;;8.70;99.90;;;;;;5032599;28;20892;-75
2024/01/01 00:09:09;;;;;;;4.00;2.00;;;8.80;99.90;;;;;;5036869;28;20068;-75
2024/01/01 00:11:37;;;;;;;5.43;3.13;;;8.80;99.90;;;;;;5029685;28;20145;-75
2024/01/01 00:14:04;;;;;;;8.40;3.30;;;8.80;99.90;;;;;;5010708;28;20503;-75
2024/01/01 00:16:32;;;;;;;5.82;3.17;;;8.80;99.90;;;;;;5006753;28;20050;-75
2024/01/01 00:18:59;;;;;;;6.07;2.55;;;8.90;99.90;;;;;;5019709;28;20188;-75
2024/01/01 00:21:27;;;;;;;3.08;2.05;;;8.90;99.90;;;;;;5026299;28;20148;-75
2024/01/01 00:23:53;;;;;;;8.70;2.97;;;8.90;99.90;;;;;;5023980;28;20507;-75
2024/01/01 00:26:20;;;;;;;4.18;1.92;;;8.90;99.90;;;;;;5037030;28;20521;-75
2024/01/01 00:28:47;;;;;;;4.30;2.35;;;8.90;99.90;;;;;;5037434;28;20402;-75
2024/01/01 00:31:14;;;;;;;5.53;2.15;;;8.90;99.90;;;;;;5036650;28;20575;-75
2024/01/01 00:33:41;;;;;;;3.70;1.75;;;8.90;99.90;;;;;;5036677;28;20045;-75
2024/01/01 00:36:08;;;;;;;5.95;2.22;;;9.00;99.90;;;;;;5037116;28;20064;-76
2024/01/01 00:38:35;;;;;;;4.72;1.52;;;8.90;99.90;;;;;;4999006;28;20072;-76
2024/01/01 00:41:03;;;;;;;4.53;1.73;;;9.00;99.90;;;;;;5002050;28;20085;-75
2024/01/01 00:43:32;;;;;;;4.68;2.25;;;8.90;99.90;;;;;;5018499;28;20112;-76
2024/01/01 00:45:59;;;;;;;4.57;1.48;;;8.90;99.90;;;;;;5017949;28;20145;-76
2024/01/01 00:48:25;;;;;;;5.00;2.13;;;8.90;99.90;;;;;;5018647;28;20057;-75
2024/01/01 00:50:52;;;;;;;3.72;1.85;;;8.80;99.90;;;;;;5015876;28;20060;-76
2024/01/01 00:53:19;;;;;;;4.47;1.45;;;8.80;99.90;;;;;;5017454;28;20046;-77
2024/01/01 00:55:46;;;;;;;3.17;1.30;;;8.80;99.90;;;;;;5005875;28;20240;-75
2024/01/01 00:58:13;;;;;;;4.25;1.08;;;8.70;99.90;;;;;;5003978;28;20523;-76
2024/01/01 01:00:40;;;;;;;3.33;1.02;;;8.70;99.90;;;;;;5021836;28;20598;-75
2024/01/01 01:03:07;;;;;;;3.22;1.73;;;8.70;99.90;;;;;;5020152;28;20049;-75
2024/01/01 01:05:34;;;;;;;4.30;1.45;;;8.60;99.90;;;;;;5003585;28;20805;-75
2024/01/01 01:08:01;;;;;;;4.68;1.58;;;8.60;99.90;;;;;;5020804;28;20045;-75
2024/01/01 01:10:29;;;;;;;2.30;1.40;;;8.70;99.90;;;;;;5021531;28;20056;-75
2024/01/01 01:12:55;;;;;;;2.67;1.02;;;8.60;99.90;;;;;;5024399;28;20111;-75
2024/01/01 01:15:25;;;;;;;4.78;1.40;;;8.60;99.90;;;;;;5023209;28;20057;-75
2024/01/01 01:17:52;;;;;;;4.55;1.45;;;8.50;99.90;;;;;;5035974;28;20049;-75
2024/01/01 01:20:19;;;;;;;3.72;1.75;;;8.50;99.90;;;;;;5005496;28;20154;-74
2024/01/01 01:22:47;;;;;;;4.38;1.80;;;8.50;99.90;;;;;;5031474;28;20049;-75
2024/01/01 01:25:14;;;;;;;2.70;1.13;;;8.50;99.90;;;;;;5026468;28;20122;-75
2024/01/01 01:27:41;;;;;;;7.60;2.45;;;8.40;99.90;;;;;;5030362;28;20048;-75
2024/01/01 01:30:09;;;;;;;3.38;1.50;;;8.40;99.90;;;;;;5011988;28;20041;-75
2024/01/01 01:32:36;;;;;;;3.53;1.08;;;8.40;99.90;;;;;;5020630;28;20067;-75
2024/01/01 01:35:04;;;;;;;4.05;1.48;;;8.40;99.90;;;;;;5026132;28;20705;-75
2024/01/01 01:37:31;;;;;;;4.07;1.42;;;8.40;99.90;;;;;;5004883;28;20080;-75
2024/01/01 01:39:59;;;;;;;1.98;1.20;;;8.30;99.90;;;;;;5021635;28;20061;-75
2024/01/01 01:42:26;;;;;;;3.63;1.23;;;8.30;99.90;;;;;;5022504;28;20049;-75
2024/01/01 01:44:53;;;;;;;1.67;1.00;;;8.30;99.90;;;;;;5020901;28;20057;-75
2024/01/01 01:47:21;;;;;;;4.55;1.38;;;8.40;99.90;;;;;;5007084;28;20095;-75
2024/01/01 01:49:48;;;;;;;3.10;0.98;;;8.40;99.90;;;;;;4992473;28;20072;-74
2024/01/01 01:52:15;;;;;;;1.73;0.77;;;8.40;99.90;;;;;;5024628;28;20132;-75
2024/01/01 01:54:44;;;;;;;4.43;1.17;;;8.40;99.90;;;;;;5023956;28;20050;-75
2024/01/01 01:57:11;;;;;;;4.90;1.20;;;8.50;99.90;;;;;;5034662;28;20060;-75
2024/01/01 01:59:37;;;;;;;3.30;0.80;;;8.50;99.90;;;;;;5043989;28;20102;-75
2024/01/01 02:02:04;;;;;;;2.80;1.00;;;8.50;99.90;;;;;;5037591;28;20088;-75
2024/01/01 02:04:31;;;;;;;2.58;0.75;;;8.50;99.90;;;;;;5011689;28;20080;-75
2024/01/01 02:06:58;;;;;;;4.28;1.27;;;8.50;99.90;;;;;;5043984;28;20053;-75
2024/01/01 02:09:25;;;;;;;1.90;0.73;;;8.50;99.90;;;;;;5046034;28;20863;-75
2024/01/01 02:11:52;;;;;;;2.35;0.70;;;8.50;99.90;;;;;;5045706;28;20677;-75
2024/01/01 02:14:19;;;;;;;1.73;0.73;;;8.50;99.90;;;;;;5031506;28;20161;-75
2024/01/01 02:16:47;;;;;;;2.20;0.90;;;8.40;99.90;;;;;;5024392;28;20065;-74
2024/01/01 02:19:20;;;;;;;3.80;0.98;;;8.40;99.90;;;;;;5008798;28;20075;-74
2024/01/01 02:21:50;;;;;;;;;;;8.40;99.90;;;;;;5024657;28;20057;-74
2024/01/01 02:24:18;;;;;;;6.35;1.30;;;8.30;99.90;;;;;;5025367;28;19921;-75
2024/01/01 02:26:45;;;;;;;1.83;0.80;;;8.30;99.90;;;;;;5008589;28;20045;-75
2024/01/01 02:29:12;;;;;;;2.03;0.95;;;8.30;99.90;;;;;;5007652;28;20088;-75
2024/01/01 02:31:39;;;;;;;3.25;0.90;;;8.30;99.90;;;;;;5006781;28;20057;-75
2024/01/01 02:34:06;;;;;;;3.55;1.17;;;8.30;99.90;;;;;;5026957;28;20053;-75
2024/01/01 02:36:37;;;;;;;2.97;0.98;;;8.30;99.90;;;;;;5007488;28;20056;-75
2024/01/01 02:39:05;;;;;;;1.98;0.98;;;8.30;99.90;;;;;;4993829;28;20126;-75
2024/01/01 02:41:34;;;;;;;3.70;1.50;;;8.40;99.90;;;;;;5027957;28;20046;-74
2024/01/01 02:44:01;;;;;;;3.20;1.23;;;8.40;99.90;;;;;;5027538;28;20487;-74
2024/01/01 02:46:28;;;;;;;4.00;1.33;;;8.40;99.90;;;;;;5018978;28;20057;-75
2024/01/01 02:48:55;;;;;;;1.77;0.82;;;8.40;99.90;;;;;;5046159;28;20052;-75
2024/01/01 02:51:21;;;;;;;6.18;1.88;;;8.50;99.90;;;;;;5046489;28;20044;-75
2024/01/01 02:53:48;;;;;;;2.08;1.02;;;8.50;99.90;;;;;;5037310;28;20053;-75
2024/01/01 02:56:19;;;;;;;2.47;1.10;;;8.50;99.90;;;;;;5027163;28;20061;-75
2024/01/01 02:58:46;;;;;;;3.75;1.10;;;8.50;99.90;;;;;;5009444;28;20045;-75
2024/01/01 03:01:13;;;;;;;2.55;1.27;;;8.60;99.90;;;;;;5026032;28;20136;-75
2024/01/01 03:03:40;;;;;;;3.00;1.17;;;8.60;99.90;;;;;;5027079;28;20050;-74
2024/01/01 03:06:07;;;;;;;4.97;1.40;;;8.60;99.90;;;;;;5025457;28;20057;-74
2024/01/01 03:08:37;;;;;;;5.50;1.20;;;8.60;99.90;;;;;;5026675;28;20083;-75
2024/01/01 03:11:07;;;;;;;3.20;1.55;;;8.60;99.90;;;;;;5009740;28;20049;-75
2024/01/01 03:13:34;;;;;;;2.60;1.20;;;8.60;99.90;;;;;;5025866;28;20057;-74
2024/01/01 03:16:02;;;;;;;2.78;1.27;;;8.60;99.90;;;;;;5025174;28;20059;-75
2024/01/01 03:18:29;;;;;;;2.33;1.05;;;8.60;99.90;;;;;;5025763;28;20055;-75
2024/01/01 03:20:56;;;;;;;1.98;0.90;;;8.60;99.90;;;;;;5025812;28;20089;-74
2024/01/01 03:23:23;;;;;;;1.90;0.70;;;8.60;99.90;;;;;;5009146;28;20049;-75
2024/01/01 03:25:50;;;;;;;2.00;0.88;;;8.70;99.90;;;;;;5027156;28;20068;-75
2024/01/01 03:28:17;;;;;;;3.42;1.10;;;8.70;99.90;;;;;;4992891;28;20057;-74
2024/01/01 03:30:44;;;;;;;3.63;1.23;;;8.70;99.90;;;;;;5009430;28;20092;-75
2024/01/01 03:33:11;;;;;;;2.90;0.88;;;8.70;99.90;;;;;;4992463;28;20573;-75
2024/01/01 03:35:38;;;;;;;1.98;0.68;;;8.70;99.90;;;;;;5025382;28;20577;-75
2024/01/01 03:38:05;;;;;;;1.58;0.63;;;8.70;99.90;;;;;;5030534;28;20115;-75
2024/01/01 03:40:32;;;;;;;1.45;0.63;;;8.70;99.90;;;;;;5045861;28;20064;-75
2024/01/01 03:43:00;;;;;;;1.95;0.60;;;8.70;99.90;;;;;;5044617;28;20528;-75
2024/01/01 03:45:27;;;;;;;3.95;1.30;;;8.70;99.90;;;;;;5025150;28;20049;-75
2024/01/01 03:47:55;;;;;;;1.88;0.85;;;8.70;99.90;;;;;;5025484;28;20089;-75
2024/01/01 03:50:23;;;;;;;2.20;0.60;;;8.70;99.90;;;;;;5024963;28;20052;-75
2024/01/01 03:52:50;;;;;;;3.03;0.82;;;8.70;99.90;;;;;;5024583;28;20068;-75
2024/01/01 03:55:18;;;;;;;3.05;0.88;;;8.70;99.90;;;;;;5026725;28;20125;-75
2024/01/01 03:57:44;;;;;;;2.33;0.70;;;8.70;99.90;;;;;;5026959;28;20115;-75
2024/01/01 04:00:12;;;;;;;3.58;0.90;;;8.70;99.90;;;;;;5024290;28;20107;-75
2024/01/01 04:02:42;;;;;;;3.70;0.90;;;8.70;99.90;;;;;;5024876;28;20060;-75
2024/01/01 04:05:10;;;;;;;1.60;0.75;;;8.70;99.90;;;;;;5024980;28;20431;-75
2024/01/01 04:07:37;;;;;;;2.63;0.80;;;8.70;99.90;;;;;;5025824;28;20049;-75
2024/01/01 04:10:06;;;;;;;2.35;0.90;;;8.70;99.90;;;;;;4992704;28;20459;-75
2024/01/01 04:12:33;;;;;;;2.75;1.27;;;8.70;99.90;;;;;;5026425;28;20057;-75
2024/01/01 04:15:00;;;;;;;3.38;0.90;;;8.70;99.90;;;;;;5044776;28;20045;-75
2024/01/01 04:17:27;;;;;;;3.15;0.80;;;8.60;99.90;;;;;;5028255;28;20053;-75
2024/01/01 04:19:54;;;;;;;2.78;1.17;;;8.60;99.90;;;;;;5044780;28;20053;-75
2024/01/01 04:22:21;;;;;;;2.28;0.82;;;8.60;99.90;;;;;;5045652;28;20045;-75
2024/01/01 04:24:52;;;;;;;2.70;1.10;;;8.60;99.90;;;;;;5044874;28;20052;-75
2024/01/01 04:27:20;;;;;;;1.92;0.88;;;8.60;99.90;;;;;;5028999;28;20053;-75
2024/01/01 04:29:46;;;;;;;1.67;0.70;;;8.60;99.90;;;;;;5048751;28;20542;-75
2024/01/01 04:32:14;;;;;;;3.42;1.00;;;8.60;99.90;;;;;;5031959;28;20056;-75
2024/01/01 04:34:41;;;;;;;2.63;1.05;;;8.60;99.90;;;;;;5049943;28;20459;-75
2024/01/01 04:37:09;;;;;;;1.15;0.60;;;8.60;99.90;;;;;;5048317;28;20045;-75
2024/01/01 04:39:36;;;;;;;1.58;0.90;;;8.60;99.90;;;;;;5048043;28;20053;-75
2024/01/01 04:42:04;;;;;;;2.90;1.00;;;8.60;99.90;;;;;;5048961;28;20057;-75
2024/01/01 04:44:31;;;;;;;2.92;1.00;;;8.60;99.90;;;;;;5048083;28;20098;-75
2024/01/01 04:46:58;;;;;;;1.77;0.80;;;8.60;99.90;;;;;;5049859;28;20076;-75
2024/01/01 04:49:25;;;;;;;2.70;0.88;;;8.60;99.90;;;;;;5048692;28;20053;-74
2024/01/01 04:51:51;;;;;;;2.08;0.93;;;8.50;99.90;;;;;;5047577;28;20045;-75
2024/01/01 04:54:18;;;;;;;3.55;1.15;;;8.50;99.90;;;;;;5049944;28;20048;-75
2024/01/01 04:56:45;;;;;;;3.17;0.90;;;8.50;99.90;;;;;;5048330;28;20128;-74
2024/01/01 04:59:12;;;;;;;2.50;0.80;;;8.50;99.90;;;;;;5048408;28;20099;-74
2024/01/01 05:01:39;;;;;;;2.38;0.88;;;8.40;99.90;;;;;;5048508;28;20479;-74
2024/01/01 05:04:06;;;;;;;3.03;0.80;;;8.40;99.90;;;;;;5031613;28;20055;-75
2024/01/01 05:06:33;;;;;;;3.40;1.30;;;8.40;99.90;;;;;;5047698;28;20053;-75
2024/01/01 05:09:00;;;;;;;3.60;1.52;;;8.30;99.90;;;;;;5048590;28;20052;-75
2024/01/01 05:11:27;;;;;;;3.25;1.10;;;8.30;99.90;;;;;;5049423;28;20217;-75
2024/01/01 05:13:54;;;;;;;2.83;1.23;;;8.30;99.90;;;;;;5041977;28;20054;-76
2024/01/01 05:16:21;;;;;;;2.67;0.80;;;8.20;99.90;;;;;;5029413;28;20050;-74
2024/01/01 05:18:48;;;;;;;2.38;0.90;;;8.30;99.90;;;;;;5028075;28;20091;-75
2024/01/01 05:21:16;;;;;;;2.95;0.88;;;8.20;99.90;;;;;;5011007;28;20053;-75
2024/01/01 05:23:42;;;;;;;3.45;1.10;;;8.20;99.90;;;;;;5010686;28;20049;-75
2024/01/01 05:26:09;;;;;;;2.55;1.00;;;8.10;99.90;;;;;;4995238;28;20051;-74
2024/01/01 05:28:36;;;;;;;1.45;0.73;;;8.10;99.90;;;;;;5010960;28;20669;-74
2024/01/01 05:31:03;;;;;;;3.45;1.00;;;8.10;99.90;;;;;;5027729;28;20092;-75
2024/01/01 05:33:30;;;;;;;2.30;0.95;;;8.10;99.90;;;;;;5011551;28;20081;-75
2024/01/01 05:35:57;;;;;;;2.28;1.05;;;8.10;99.90;;;;;;5028522;28;20436;-75
2024/01/01 05:38:24;;;;;;;2.55;0.90;;;8.10;99.90;;;;;;5026648;28;20049;-74
2024/01/01 05:40:51;;;;;;;3.58;1.00;;;8.10;99.90;;;;;;5027413;28;20042;-75
2024/01/01 05:43:21;;;;;;;5.88;0.98;;;8.00;99.90;;;;;;5028353;28;20056;-75
2024/01/01 05:45:49;;;;;;;2.75;0.80;;;8.00;99.90;;;;;;5027674;28;20085;-74
2024/01/01 05:48:16;;;;;;;2.00;0.60;;;7.90;99.90;;;;;;5009229;28;20565;-74
2024/01/01 05:50:55;;;;;;;4.10;1.35;;;7.90;99.90;;;;;;5010641;28;20069;-74
2024/01/01 05:53:22;;;;;;;2.75;1.00;;;7.90;99.90;;;;;;4992345;28;20050;-75
2024/01/01 05:55:49;;;;;;;2.78;1.10;;;7.90;99.90;;;;;;5009005;28;20056;-75
2024/01/01 05:58:16;;;;;;;2.35;1.02;;;7.80;99.90;;;;;;5009064;28;20049;-74
2024/01/01 06:00:43;;;;;;;1.83;0.82;;;7.80;99.90;;;;;;5012412;28;20052;-74
2024/01/01 06:03:10;;;;;;;3.30;0.80;;;7.80;99.90;;;;;;5008141;28;20536;-75
2024/01/01 06:05:37;;;;;;;1.90;0.90;;;7.70;99.90;;;;;;5022430;28;20088;-75
2024/01/01 06:08:05;;;;;;;1.38;0.70;;;7.70;99.90;;;;;;4989124;28;20104;-75
2024/01/01 06:10:32;;;;;;;2.20;0.75;;;7.70;99.90;;;;;;5024576;28;20057;-74
2024/01/01 06:12:59;;;;;;;1.95;0.77;;;7.70;99.90;;;;;;4991614;28;20061;-74
2024/01/01 06:15:27;;;;;;;2.10;0.90;;;7.70;99.90;;;;;;5008474;28;20064;-74
2024/01/01 06:17:54;;;;;;;4.13;1.20;;;7.60;99.90;;;;;;5008234;28;20060;-75
2024/01/01 06:20:21;;;;;;;3.83;1.10;;;7.60;99.90;;;;;;5023990;28;20058;-74
2024/01/01 06:22:48;;;;;;;1.42;0.82;;;7.60;99.90;;;;;;5008492;28;20135;-75
2024/01/01 06:25:16;;;;;;;1.58;1.02;;;7.60;99.90;;;;;;5025883;28;20049;-74
2024/01/01 06:27:43;;;;;;;3.75;1.38;;;7.50;99.90;;;;;;5004643;28;20464;-74
2024/01/01 06:30:10;;;;;;;4.90;1.63;;;7.50;99.90;;;;;;4988032;28;20045;-74
2024/01/01 06:32:37;;;;;;;3.25;1.10;;;7.50;99.90;;;;;;5003903;28;20527;-76
2024/01/01 06:35:04;;;;;;;4.95;1.17;;;7.50;99.90;;;;;;4998162;28;20893;-75
2024/01/01 06:37:31;;;;;;;4.97;1.73;;;7.50;99.90;;;;;;5004280;28;20053;-75
2024/01/01 06:39:58;;;;;;;6.50;2.15;;;7.50;99.90;;;;;;5010232;28;20046;-76
2024/01/01 06:42:25;;;;;;;3.03;1.20;;;7.50;99.90;;;;;;5004848;28;20584;-75
2024/01/01 06:44:56;;;;;;;4.40;1.48;;;7.60;99.90;;;;;;5020168;28;20707;-75
2024/01/01 06:47:23;;;;;;;5.10;1.33;;;7.50;99.90;;;;;;5004570;28;20045;-75
2024/01/01 06:49:50;;;;;;;2.70;0.98;;;7.60;99.90;;;;;;5024818;28;20152;-75
2024/01/01 06:52:17;;;;;;;3.85;1.30;;;7.50;99.90;;;;;;5022646;28;20049;-74
2024/01/01 06:54:44;;;;;;;4.10;0.93;;;7.50;99.90;;;;;;5023249;28;20096;-74
2024/01/01 06:57:10;;;;;;;5.05;1.75;;;7.50;99.90;;;;;;5024088;28;20139;-74
2024/01/01 06:59:37;;;;;;;2.13;0.85;;;7.60;99.90;;;;;;5007099;28;20575;-74
2024/01/01 07:02:04;;;;;;;2.65;0.82;;;7.60;99.90;;;;;;5007261;28;20057;-74
2024/01/01 07:04:32;;;;;;;4.50;1.48;;;7.60;99.90;;;;;;5023934;28;20553;-75
2024/01/01 07:06:59;;;;;;;2.80;1.02;;;7.60;99.90;;;;;;5021576;28;20140;-74
2024/01/01 07:09:26;;;;;;;4.20;1.38;;;7.60;99.90;;;;;;5004414;28;20135;-75
2024/01/01 07:11:55;;;;;;;3.17;1.25;;;7.60;99.90;;;;;;5020808;28;20484;-75
2024/01/01 07:14:22;;;;;;;3.85;1.08;;;7.60;99.90;;;;;;5006510;28;20506;-76
2024/01/01 07:16:52;;;;;;;3.67;1.13;;;7.60;99.90;;;;;;5006618;28;20511;-76
2024/01/01 07:19:18;;;;;;;2.65;1.20;;;7.60;99.90;;;;;;5022778;28;20041;-75
2024/01/01 07:21:47;;;;;;;5.03;1.60;;;7.60;99.90;;;;;;5022370;28;20045;-76
2024/01/01 07:24:14;;;;;;;4.13;1.15;;;7.60;99.90;;;;;;4988768;28;20507;-75
2024/01/01 07:26:41;;;;;;;6.68;1.90;;;7.60;99.90;;;;;;5021842;28;20146;-75
2024/01/01 07:29:08;;;;;;;3.65;1.38;;;7.60;99.90;;;;;;4986936;28;20080;-75
2024/01/01 07:31:35;;;;;;;3.38;1.40;;;7.60;99.90;;;;;;5022376;28;20053;-75
2024/01/01 07:34:02;;;;;;;2.45;1.13;;;7.60;99.90;;;;;;5006463;28;20049;-76
2024/01/01 07:36:30;;;;;;;3.97;1.55;;;7.60;99.90;;;;;;5022520;28;20049;-76
2024/01/01 07:38:57;;;;;;;2.35;1.00;;;7.60;99.90;;;;;;5030813;28;20431;-75
2024/01/01 07:41:24;;;;;;;4.88;1.50;;;7.60;99.90;;;;;;5007332;28;20060;-76
2024/01/01 07:43:51;;;;;;;3.30;1.10;;;7.60;99.90;;;;;;5021864;28;20491;-75
2024/01/01 07:46:19;;;;;;;2.47;1.10;;;7.50;99.90;;;;;;5023181;28;20060;-75
2024/01/01 07:48:46;;;;;;;3.33;1.15;;;7.50;99.90;;;;;;5006561;28;20049;-75
2024/01/01 07:51:13;;;;;;;5.60;1.58;;;7.50;99.90;;;;;;5006214;28;20049;-76
2024/01/01 07:53:42;;;;;;;5.20;1.38;;;7.50;99.90;;;;;;5022527;28;20056;-75
2024/01/01 07:56:09;;;;;;;4.22;1.52;;;7.50;99.90;;;;;;5039543;28;20129;-76
2024/01/01 07:58:36;;;;;;;4.25;1.20;;;7.50;99.90;;;;;;5009531;28;20057;-76
2024/01/01 08:01:04;;;;;;;9.10;1.75;;;7.50;99.90;;;;;;5004790;28;20499;-75
2024/01/01 08:03:31;;;;;;;4.45;1.33;;;7.60;99.90;;;;;;5028504;28;20080;-75
2024/01/01 08:05:58;;;;;;;3.33;1.17;;;7.60;99.90;;;;;;5005418;28;20056;-75
2024/01/01 08:08:25;;;;;;;3.92;1.27;;;7.60;99.90;;;;;;5014375;28;20038;-75
2024/01/01 08:10:53;;;;;;;5.95;1.50;;;7.60;99.90;;;;;;5005327;28;20045;-75
2024/01/01 08:13:20;;;;;;;5.57;1.42;;;7.60;99.90;;;;;;5002382;28;20061;-76
2024/01/01 08:15:47;;;;;;;4.32;1.23;;;7.60;99.90;;;;;;4999011;28;20053;-76
2024/01/01 08:18:13;;;;;;;4.93;1.00;;;7.60;99.90;;;;;;5032357;28;20053;-75
2024/01/01 08:20:41;;;;;;;4.25;1.23;;;7.60;99.90;;;;;;5005957;28;20055;-76
2024/01/01 08:23:08;;;;;;;2.95;0.77;;;7.60;99.90;;;;;;5015085;28;20049;-76
2024/01/01 08:25:35;;;;;;;3.92;1.40;;;7.60;99.90;;;;;;5015776;28;20049;-76
2024/01/01 08:28:02;;;;;;;2.58;1.10;;;7.60;99.90;;;;;;4990029;28;20081;-74
2024/01/01 08:30:29;;;;;;;2.38;0.93;;;7.60;99.90;;;;;;5023868;28;20041;-74
2024/01/01 08:32:57;;;;;;;4.28;1.58;;;7.60;99.90;;;;;;5042416;28;20161;-74
2024/01/01 08:35:25;;;;;;;3.00;0.90;;;7.60;99.90;;;;;;5025420;28;20049;-74
2024/01/01 08:37:51;;;;;;;3.53;1.20;;;7.60;99.90;;;;;;5040964;28;20140;-74
2024/01/01 08:40:18;;;;;;;2.65;1.30;;;7.60;99.90;;;;;;5042029;28;20059;-76
2024/01/01 08:42:47;;;;;;;3.83;1.23;;;7.60;99.90;;;;;;5043670;28;20056;-76
2024/01/01 08:45:16;;;;;;;1.42;0.77;;;7.60;99.90;;;;;;5025714;28;20131;-76
2024/01/01 08:47:43;;;;;;;2.47;0.65;;;7.60;99.90;;;;;;5019117;28;20049;-76
2024/01/01 08:50:11;;;;;;;6.03;1.65;;;7.70;99.90;;;;;;5033724;28;20146;-76
2024/01/01 08:52:39;;;;;;;4.88;1.40;;;7.70;99.90;;;;;;5015521;28;20098;-76
2024/01/01 08:55:06;;;;;;;3.45;1.10;;;7.70;99.90;;;;;;5018127;28;20095;-76
2024/01/01 08:57:34;;;;;;;3.10;0.95;;;7.70;99.90;;;;;;5011842;28;20079;-76
2024/01/01 09:00:03;;;;;;;2.50;0.85;;;7.70;99.90;;;;;;5030991;28;20353;-76
2024/01/01 09:02:30;;;;;;;4.47;1.15;;;7.70;99.90;;;;;;4997086;28;20045;-76
2024/01/01 09:04:57;;;;;;;3.72;1.77;;;7.80;99.90;;;;;;5008135;28;20061;-75
2024/01/01 09:07:24;;;;;;;1.88;0.77;;;7.80;99.90;;;;;;5003807;28;20119;-75
2024/01/01 09:09:50;;;;;;;3.22;0.80;;;7.80;99.90;;;;;;5031364;28;20080;-75
2024/01/01 09:12:17;;;;;;;2.42;0.98;;;7.80;99.90;;;;;;5029854;28;20045;-74
2024/01/01 09:14:45;;;;;;;3.15;1.05;;;7.80;99.90;;;;;;5017941;28;20041;-76
2024/01/01 09:17:12;;;;;;;4.57;1.65;;;7.90;99.90;;;;;;5034474;28;20115;-76
2024/01/01 09:19:39;;;;;;;4.80;1.23;;;7.90;99.90;;;;;;5001105;28;20127;-76
2024/01/01 09:22:06;;;;;;;2.78;1.00;;;8.00;99.90;;;;;;5017029;28;20073;-76
2024/01/01 09:24:33;;;;;;;3.95;1.00;;;7.90;99.90;;;;;;5004238;28;20479;-73
2024/01/01 09:27:00;;;;;;;4.25;1.17;;;8.00;99.90;;;;;;5034274;28;20050;-74
2024/01/01 09:29:27;;;;;;;3.90;1.10;;;8.00;99.90;;;;;;5000744;28;20053;-73
2024/01/01 09:31:54;;;;;;;2.72;0.80;;;8.00;99.90;;;;;;5034897;28;20041;-73
2024/01/01 09:34:21;;;;;;;4.25;1.23;;;8.10;99.90;;;;;;5040567;28;20041;-76
2024/01/01 09:36:48;;;;;;;2.17;0.80;;;8.10;99.90;;;;;;5032811;28;20107;-76
2024/01/01 09:39:29;;;;;;;2.92;0.88;;;8.10;99.90;;;;;;5027495;28;20049;-76
2024/01/01 09:41:56;;;;;;;3.30;0.82;;;8.20;99.90;;;;;;4996523;28;20076;-76
2024/01/01 09:44:23;;;;;;;4.05;1.08;;;8.20;99.90;;;;;;5001480;28;20556;-76
2024/01/01 09:46:52;;;;;;;1.20;0.70;;;8.20;99.90;;;;;;5011925;28;20424;-74
2024/01/01 09:49:19;;;;;;;3.30;0.88;;;8.20;99.90;;;;;;5031151;28;20049;-74
2024/01/01 09:51:47;;;;;;;2.50;0.93;;;8.30;99.90;;;;;;5012863;28;20798;-75
2024/01/01 09:54:13;;;;;;;3.20;0.93;;;8.30;99.90;;;;;;5008031;28;20621;-74
2024/01/01 09:56:40;;;;;;;2.78;0.80;;;8.40;99.90;;;;;;5008551;28;20111;-74
2024/01/01 09:59:07;;;;;;;1.25;0.80;;;8.40;99.90;;;;;;5018966;28;20049;-74
2024/01/01 10:01:38;;;;;;;3.38;1.02;;;8.50;99.90;;;;;;5020415;28;20057;-74
2024/01/01 10:04:09;;;;;;;1.45;0.88;;;8.50;99.90;;;;;;5024261;28;20629;-76
2024/01/01 10:06:37;;;;;;;2.85;0.80;;;8.50;99.90;;;;;;5003122;28;20161;-74
2024/01/01 10:09:08;;;;;;;3.83;1.17;;;8.60;99.90;;;;;;5002447;28;20091;-73
2024/01/01 10:11:38;;;;;;;2.70;0.90;;;8.60;99.90;;;;;;5019547;28;20136;-75
2024/01/01 10:14:09;;;;;;;3.53;1.05;;;8.70;99.90;;;;;;5017955;28;20049;-75
2024/01/01 10:16:38;;;;;;;2.70;0.95;;;8.70;99.90;;;;;;5003056;28;20045;-74
2024/01/01 10:19:06;;;;;;;2.78;0.95;;;8.70;99.90;;;;;;5003944;28;20053;-74
2024/01/01 10:21:34;;;;;;;2.20;1.02;;;8.80;99.90;;;;;;5007768;28;20053;-75
2024/01/01 10:24:22;;;;;;;3.22;1.00;;;8.80;99.90;;;;;;4999758;28;20053;-75
2024/01/01 10:26:58;;;;;;;1.58;0.60;;;9.00;99.90;;;;;;5017082;28;20046;-75
2024/01/01 10:29:25;;;;;;;1.95;0.95;;;9.00;99.90;;;;;;5019501;28;20064;-75
2024/01/01 10:31:53;;;;;;;3.65;1.38;;;9.10;99.90;;;;;;4999752;28;20058;-75
2024/01/01 10:34:20;;;;;;;3.55;1.13;;;9.20;99.90;;;;;;5024269;28;20451;-75
2024/01/01 10:36:47;;;;;;;2.80;0.90;;;9.30;99.90;;;;;;5018326;28;20088;-75
2024/01/01 10:39:14;;;;;;;1.77;0.70;;;9.30;99.90;;;;;;5029976;28;20053;-76
2024/01/01 10:41:41;;;;;;;4.97;1.02;;;9.40;99.90;;;;;;5018643;28;20045;-75
2024/01/01 10:44:08;;;;;;;2.50;0.90;;;9.40;99.90;;;;;;4997107;28;20053;-75
2024/01/01 10:46:39;;;;;;;3.42;1.15;;;9.50;99.90;;;;;;5017772;28;20053;-75
2024/01/01 10:49:15;;;;;;;2.63;0.98;;;9.50;99.90;;;;;;5002910;28;20122;-75
2024/01/01 10:52:01;;;;;;;4.68;1.10;;;9.60;99.90;;;;;;5010928;28;20053;-76
2024/01/01 10:54:34;;;;;;;3.70;1.10;;;9.60;99.90;;;;;;5020315;28;20049;-75
2024/01/01 10:57:29;;;;;;;3.25;1.05;;;9.60;99.90;;;;;;5016679;28;20115;-75
2024/01/01 11:00:07;;;;;;;1.50;0.85;;;9.50;99.90;;;;;;5019735;28;20045;-75
2024/01/01 11:02:34;;;;;;;3.78;0.82;;;9.50;99.90;;;;;;4991100;28;20574;-75
2024/01/01 11:05:08;;;;;;;1.92;0.70;;;9.50;99.90;;;;;;5031598;28;20069;-75
2024/01/01 11:07:59;;;;;;;2.72;0.95;;;9.50;99.90;;;;;;5009066;28;20448;-75
2024/01/01 11:10:44;;;;;;;1.45;0.80;;;9.60;99.90;;;;;;5036142;28;20045;-75
2024/01/01 11:13:33;;;;;;;2.20;0.80;;;9.50;99.90;;;;;;5017491;28;20168;-75
2024/01/01 11:16:01;;;;;;;2.47;0.80;;;9.50;99.90;;;;;;5031263;28;20140;-75
2024/01/01 11:18:34;;;;;;;2.15;0.73;;;9.60;99.90;;;;;;5003161;28;20057;-75
2024/01/01 11:21:08;;;;;;;2.15;0.73;;;9.60;99.90;;;;;;5012748;28;20051;-75
2024/01/01 11:23:47;;;;;;;2.95;0.80;;;9.60;99.90;;;;;;5038493;28;20055;-75
2024/01/01 11:26:22;;;;;;;1.73;0.68;;;9.70;99.90;;;;;;5006818;28;20107;-75
2024/01/01 11:28:54;;;;;;;;;;;9.80;99.90;;;;;;5031241;28;20063;-75
2024/01/01 11:31:22;;;;;;;1.52;0.70;;;9.80;99.90;;;;;;5038862;28;20348;-76
2024/01/01 11:34:08;;;;;;;2.60;0.80;;;9.90;99.90;;;;;;5025337;28;20134;-76
2024/01/01 11:36:50;;;;;;;1.38;0.70;;;9.90;99.90;;;;;;5031273;28;20060;-75
2024/01/01 11:39:21;;;;;;;2.03;0.70;;;9.90;99.90;;;;;;5030274;28;20132;-74
2024/01/01 11:41:48;;;;;;;1.38;0.63;;;9.90;99.90;;;;;;5026867;28;20621;-76
2024/01/01 11:44:18;;;;;;;1.73;0.60;;;9.90;99.90;;;;;;5010037;28;20068;-75
2024/01/01 11:46:46;;;;;;;0.73;0.40;;;10.00;99.90;;;;;;5010085;28;20048;-75
2024/01/01 11:49:13;;;;;;;0.57;0.50;;;10.00;99.90;;;;;;5010799;28;20055;-74
2024/01/01 11:51:57;;;;;;;1.05;0.75;;;10.00;99.90;;;;;;5025434;28;20057;-75
2024/01/01 11:54:26;;;;;;;2.25;0.65;;;10.00;99.90;;;;;;5020757;28;20067;-75
2024/01/01 11:56:56;;;;;;;1.27;0.77;;;10.10;99.90;;;;;;5024744;28;20049;-75
2024/01/01 11:59:24;;;;;;;1.67;0.70;;;10.10;99.90;;;;;;5010878;28;20072;-75
2024/01/01 12:01:51;;;;;;;1.33;0.70;;;10.00;99.90;;;;;;5011615;28;20128;-75
2024/01/01 12:04:18;;;;;;;2.60;0.70;;;9.90;99.90;;;;;;5033798;28;20510;-75
2024/01/01 12:06:51;;;;;;;1.92;1.17;;;9.90;99.90;;;;;;5031351;28;20525;-75
2024/01/01 12:09:20;;;;;;;1.67;0.80;;;9.80;99.90;;;;;;5016594;28;20160;-75
2024/01/01 12:11:48;;;;;;;3.00;0.80;;;9.70;99.90;;;;;;5016024;28;20052;-75
2024/01/01 12:14:15;;;;;;;1.05;0.63;;;9.70;99.90;;;;;;5014798;28;20593;-75
2024/01/01 12:16:42;;;;;;;3.42;0.70;;;9.70;99.90;;;;;;5034873;28;20045;-75
2024/01/01 12:19:09;;;;;;;1.00;0.70;;;9.80;99.90;;;;;;5015135;28;20060;-75
2024/01/01 12:21:41;;;;;;;2.05;0.68;;;9.80;99.90;;;;;;5030344;28;20043;-75
2024/01/01 12:24:09;;;;;;;0.95;0.45;;;9.80;99.90;;;;;;5034095;28;20046;-75
2024/01/01 12:26:36;;;;;;;0.75;0.40;;;9.80;99.90;;;;;;5032674;28;20041;-75
2024/01/01 12:29:29;;;;;;;1.50;0.70;;;9.80;99.90;;;;;;4999221;28;20111;-76
2024/01/01 12:31:57;;;;;;;0.95;0.45;;;9.80;99.90;;;;;;5048528;28;20057;-75
2024/01/01 12:34:24;;;;;;;2.65;0.85;;;9.80;99.90;;;;;;5035421;28;20163;-75
2024/01/01 12:36:51;;;;;;;3.25;0.70;;;9.80;99.90;;;;;;5038741;28;20041;-75
2024/01/01 12:39:20;;;;;;;1.42;0.60;;;9.80;99.90;;;;;;5004385;28;20053;-75
2024/01/01 12:41:47;;;;;;;0.95;0.40;;;9.70;99.90;;;;;;5009039;28;20048;-74
2024/01/01 12:44:14;;;;;;;0.47;0.35;;;9.70;99.90;;;;;;5016828;28;20150;-74
2024/01/01 12:46:41;;;;;;;0.55;0.40;;;9.70;99.90;;;;;;5029873;28;20053;-75
2024/01/01 12:49:08;;;;;;;0.70;0.43;;;9.70;99.90;;;;;;5033166;28;20057;-75
2024/01/01 12:51:35;;;;;;;0.55;0.38;;;9.80;99.90;;;;;;5029662;28;20045;-76
2024/01/01 12:54:03;;;;;;;0.68;0.40;;;9.80;99.90;;;;;;5026643;28;20537;-76
2024/01/01 12:56:31;;;;;;;0.60;0.52;;;9.80;99.90;;;;;;5026783;28;20095;-76
2024/01/01 12:59:02;;;;;;;0.95;0.50;;;9.80;99.90;;;;;;4993377;28;20049;-76
2024/01/01 13:01:29;;;;;;;0.65;0.45;;;9.80;99.90;;;;;;5025617;28;20056;-76
2024/01/01 13:03:57;;;;;;;0.88;0.50;;;9.80;99.90;;;;;;5025435;28;20454;-76